Time;durP1;ratioP1;P1;durP2;ratioP2;P2;SDS_P1;SDS_P2;PMS_P1;PMS_P2;Temp;Humidity;BMP_temperature;BMP_pressure;BME280_temperature;BME280_humidity;BME280_pressure;Samples;Min_cycle;Max_cycle;Signal;HPM_P1;HPM_P2
2023/07/12 00:01:18;;;;;;;12.40;6.60;;;;;;;23.16;66.16;99800.28;6030472;28;20405;-69
2023/07/12 00:04:13;;;;;;;13.25;6.75;;;;;;;23.13;65.92;99781.84;6028744;28;20057;-67
2023/07/12 00:07:12;;;;;;;10.35;6.38;;;;;;;23.12;66.06;99780.22;6027876;28;20034;-68
2023/07/12 00:10:14;;;;;;;12.73;7.43;;;;;;;23.15;65.98;99781.63;6029450;28;20034;-67
2023/07/12 00:13:09;;;;;;;11.32;6.72;;;;;;;23.06;66.47;99779.34;6029277;28;20123;-68
2023/07/12 00:16:16;;;;;;;12.95;6.82;;;;;;;23.03;66.66;99774.44;6029767;28;20026;-68
2023/07/12 00:19:14;;;;;;;13.85;7.45;;;;;;;22.94;66.76;99759.69;6027926;28;20548;-68
2023/07/12 00:22:10;;;;;;;12.98;6.80;;;;;;;22.95;66.66;99763.22;6029217;28;20061;-68
2023/07/12 00:25:05;;;;;;;13.93;6.67;;;;;;;22.89;66.67;99762.34;6035077;28;20030;-67
2023/07/12 00:28:01;;;;;;;14.40;7.45;;;;;;;22.89;66.93;99762.34;6028690;28;20069;-68
2023/07/12 00:30:57;;;;;;;14.18;7.18;;;;;;;22.79;67.42;99745.97;6028916;28;20490;-68
2023/07/12 00:33:52;;;;;;;13.45;7.00;;;;;;;22.82;66.51;99758.19;6028168;28;20042;-67
2023/07/12 00:36:48;;;;;;;15.52;7.25;;;;;;;22.87;66.69;99760.94;6028880;28;20037;-68
2023/07/12 00:39:43;;;;;;;14.87;6.63;;;;;;;22.82;66.90;99760.88;6028588;28;20022;-68
2023/07/12 00:42:42;;;;;;;17.33;7.43;;;;;;;22.79;66.82;99750.56;6028365;28;20053;-67
2023/07/12 00:45:37;;;;;;;15.98;7.78;;;;;;;22.85;66.44;99766.63;6039391;28;20022;-68
2023/07/12 00:48:33;;;;;;;12.82;7.07;;;;;;;22.92;65.88;99782.66;6027764;28;20085;-68
2023/07/12 00:51:46;;;;;;;14.30;7.03;;;;;;;22.84;65.70;99756.03;6028523;28;20466;-69
2023/07/12 00:54:54;;;;;;;13.00;7.07;;;;;;;22.87;65.99;99779.88;6030691;28;20035;-67
2023/07/12 00:57:49;;;;;;;20.02;7.38;;;;;;;22.83;65.56;99755.22;6028431;28;20036;-67
2023/07/12 01:00:45;;;;;;;11.63;6.47;;;;;;;22.83;65.90;99776.03;6028243;28;20131;-67
2023/07/12 01:03:42;;;;;;;13.02;6.70;;;;;;;22.99;65.47;99786.00;6032496;28;20469;-67
2023/07/12 01:06:38;;;;;;;13.20;6.57;;;;;;;23.02;65.13;99780.06;6026997;28;20102;-67
2023/07/12 01:09:33;;;;;;;11.73;6.78;;;;;;;22.94;65.36;99769.69;6029451;28;20042;-67
2023/07/12 01:12:28;;;;;;;14.63;5.87;;;;;;;23.00;65.21;99780.34;6028107;28;20034;-68
2023/07/12 01:15:24;;;;;;;11.30;5.87;;;;;;;23.14;64.86;99780.78;6027097;28;20037;-67
2023/07/12 01:18:19;;;;;;;11.53;5.80;;;;;;;23.17;64.76;99774.88;6027360;28;20065;-68
2023/07/12 01:21:18;;;;;;;9.97;5.53;;;;;;;23.25;64.69;99801.50;6028765;28;20277;-67
2023/07/12 01:24:15;;;;;;;12.45;6.38;;;;;;;23.32;64.50;99796.72;6026788;28;20352;-67
2023/07/12 01:27:23;;;;;;;9.88;5.53;;;;;;;23.39;64.50;99815.50;6028807;28;20032;-67
2023/07/12 01:30:19;;;;;;;8.68;4.90;;;;;;;23.53;63.53;99809.47;6027739;28;20034;-67
2023/07/12 01:33:14;;;;;;;11.63;5.25;;;;;;;23.63;62.98;99804.19;6027496;28;20026;-67
2023/07/12 01:36:10;;;;;;;7.20;4.50;;;;;;;23.58;62.92;99787.88;6028323;28;20519;-68
2023/07/12 01:39:05;;;;;;;8.18;4.88;;;;;;;23.56;63.01;99779.16;6027183;28;20352;-67
2023/07/12 01:42:01;;;;;;;11.50;4.80;;;;;;;23.58;62.74;99782.47;6027351;28;20088;-68
2023/07/12 01:44:57;;;;;;;8.30;4.60;;;;;;;23.61;62.39;99781.13;6026568;28;20022;-67
2023/07/12 01:47:52;;;;;;;10.07;4.60;;;;;;;23.69;61.79;99780.69;6027308;28;20102;-68
2023/07/12 01:50:47;;;;;;;7.43;4.40;;;;;;;23.84;61.40;99790.84;6027023;28;20041;-67
2023/07/12 01:53:43;;;;;;;8.90;4.95;;;;;;;23.85;61.03;99782.47;6027287;28;20065;-68
2023/07/12 01:56:38;;;;;;;7.23;4.07;;;;;;;23.86;60.69;99769.75;6026923;28;20034;-67
2023/07/12 01:59:33;;;;;;;8.30;4.30;;;;;;;24.06;60.24;99797.03;6026838;28;20033;-67
2023/07/12 02:02:29;;;;;;;10.97;4.60;;;;;;;23.92;60.48;99783.09;6027062;28;20037;-68
2023/07/12 02:05:24;;;;;;;8.73;4.18;;;;;;;23.94;60.84;99796.38;6026502;28;20076;-67
2023/07/12 02:08:20;;;;;;;8.13;4.20;;;;;;;23.91;61.37;99823.97;6027117;28;20488;-67
2023/07/12 02:11:15;;;;;;;8.98;4.43;;;;;;;23.81;61.94;99824.66;6026819;28;20776;-68
2023/07/12 02:14:10;;;;;;;6.68;4.13;;;;;;;23.54;63.46;99816.50;6026937;28;20030;-67
2023/07/12 02:17:06;;;;;;;9.73;4.70;;;;;;;23.39;65.38;99827.16;6026559;28;20064;-67
2023/07/12 02:20:01;;;;;;;10.53;5.27;;;;;;;23.18;67.72;99851.47;6026503;28;20034;-67
2023/07/12 02:22:57;;;;;;;12.43;5.38;;;;;;;22.63;70.93;99864.91;6026618;28;20508;-67
2023/07/12 02:25:52;;;;;;;17.03;5.63;;;;;;;22.10;74.24;99887.72;6030957;28;20026;-67
2023/07/12 02:28:47;;;;;;;9.50;4.80;;;;;;;21.75;77.06;99890.53;6028217;28;20269;-67
2023/07/12 02:31:42;;;;;;;10.90;5.47;;;;;;;21.46;79.48;99901.50;6025835;28;20109;-67
2023/07/12 02:34:38;;;;;;;9.73;5.20;;;;;;;21.31;81.50;99910.88;6025508;28;20437;-68
2023/07/12 02:37:33;;;;;;;11.67;5.57;;;;;;;21.10;83.24;99911.47;6026250;28;20066;-68
2023/07/12 02:40:28;;;;;;;10.55;5.05;;;;;;;20.76;84.79;99901.47;6029825;28;20028;-68
2023/07/12 02:43:24;;;;;;;13.38;5.35;;;;;;;20.64;85.94;99919.47;6027424;28;20023;-67
2023/07/12 02:46:19;;;;;;;10.90;5.63;;;;;;;20.41;87.45;99932.88;6026198;28;20533;-67
2023/07/12 02:49:14;;;;;;;9.50;4.90;;;;;;;20.23;88.69;99916.72;6025942;28;20077;-68
2023/07/12 02:52:10;;;;;;;8.43;5.03;;;;;;;20.04;89.87;99902.47;6026047;28;20038;-67
2023/07/12 02:55:05;;;;;;;10.07;4.93;;;;;;;19.81;91.50;99913.13;6025354;28;20493;-67
2023/07/12 02:58:00;;;;;;;6.85;4.32;;;;;;;19.59;93.48;99915.44;6026759;28;20018;-67
2023/07/12 03:00:57;;;;;;;8.73;4.43;;;;;;;19.43;94.71;99899.91;6026125;28;20045;-67
2023/07/12 03:03:53;;;;;;;10.27;4.63;;;;;;;19.22;96.74;99903.78;6025040;28;20029;-67
2023/07/12 03:06:49;;;;;;;9.88;4.57;;;;;;;19.23;97.57;99932.34;6025782;28;20026;-67
2023/07/12 03:09:44;;;;;;;8.98;4.90;;;;;;;19.17;98.39;99933.22;6026013;28;20030;-68
2023/07/12 03:12:40;;;;;;;8.87;4.70;;;;;;;19.14;99.31;99935.50;6033277;28;20444;-67
2023/07/12 03:15:38;;;;;;;9.90;4.57;;;;;;;19.10;99.44;99953.97;6029377;28;20074;-68
2023/07/12 03:18:33;;;;;;;10.05;4.07;;;;;;;18.97;100.00;99937.91;6025843;28;20046;-67
2023/07/12 03:21:29;;;;;;;9.73;4.60;;;;;;;19.00;100.00;99945.56;6025874;28;20136;-67
2023/07/12 03:24:24;;;;;;;13.70;6.23;;;;;;;18.93;100.00;99936.72;6025485;28;20520;-67
2023/07/12 03:27:20;;;;;;;8.50;4.50;;;;;;;18.80;100.00;99943.03;6034134;28;20030;-67
2023/07/12 03:30:16;;;;;;;9.32;4.05;;;;;;;18.74;100.00;99941.22;6036667;28;20093;-68
2023/07/12 03:33:11;;;;;;;10.38;4.38;;;;;;;18.57;100.00;99932.03;6036396;28;20030;-68
2023/07/12 03:36:07;;;;;;;8.93;3.93;;;;;;;18.67;100.00;99956.53;6025365;28;20543;-67
2023/07/12 03:39:02;;;;;;;9.85;3.90;;;;;;;18.58;100.00;99944.44;6025619;28;20428;-67
2023/07/12 03:41:58;;;;;;;6.43;3.60;;;;;;;18.56;100.00;99951.06;6027784;28;20030;-68
2023/07/12 03:44:53;;;;;;;7.40;3.85;;;;;;;18.65;100.00;99974.75;6030023;28;20745;-68
2023/07/12 03:47:49;;;;;;;9.73;3.87;;;;;;;18.62;100.00;99993.97;6029657;28;20377;-67
2023/07/12 03:50:47;;;;;;;6.23;3.53;;;;;;;18.56;100.00;99984.13;6029848;28;20037;-68
2023/07/12 03:53:42;;;;;;;9.43;3.50;;;;;;;18.62;100.00;99998.50;6029077;28;20030;-67
2023/07/12 03:56:37;;;;;;;7.63;3.53;;;;;;;18.68;100.00;99998.50;6039214;28;20037;-67
2023/07/12 03:59:33;;;;;;;5.13;3.00;;;;;;;18.61;100.00;99978.91;6033055;28;20481;-67
2023/07/12 04:02:28;;;;;;;5.75;3.08;;;;;;;18.66;100.00;99992.50;6040748;28;20724;-67
2023/07/12 04:05:23;;;;;;;6.77;2.90;;;;;;;18.70;100.00;100001.78;6038249;28;20026;-67
2023/07/12 04:08:19;;;;;;;6.50;3.17;;;;;;;18.65;100.00;100009.66;6029313;28;20288;-67
2023/07/12 04:11:36;;;;;;;8.75;2.97;;;;;;;18.63;100.00;100019.81;6029143;28;20026;-68
2023/07/12 04:14:31;;;;;;;7.47;3.13;;;;;;;18.58;100.00;100027.69;6028594;28;20021;-67
2023/07/12 04:17:27;;;;;;;5.60;2.83;;;;;;;18.59;100.00;100025.81;6033727;28;20030;-67
2023/07/12 04:20:22;;;;;;;9.33;3.20;;;;;;;18.70;100.00;100043.91;6029210;28;20438;-67
2023/07/12 04:23:17;;;;;;;7.20;3.10;;;;;;;18.61;100.00;100048.75;6028576;28;20299;-68
2023/07/12 04:26:13;;;;;;;5.57;2.80;;;;;;;18.64;100.00;100066.28;6028875;28;20486;-67
2023/07/12 04:29:09;;;;;;;5.35;2.78;;;;;;;18.62;100.00;100063.81;6028946;28;20042;-68
2023/07/12 04:32:04;;;;;;;5.77;2.50;;;;;;;18.85;100.00;100074.88;6028700;28;20046;-68
2023/07/12 04:35:00;;;;;;;7.13;2.55;;;;;;;18.90;100.00;100083.09;6033309;28;20034;-68
2023/07/12 04:37:56;;;;;;;6.95;2.80;;;;;;;18.91;100.00;100081.25;6035926;28;20046;-67
2023/07/12 04:40:55;;;;;;;6.80;2.50;;;;;;;18.93;100.00;100077.28;6028660;28;20359;-67
2023/07/12 04:43:50;;;;;;;5.90;2.28;;;;;;;18.97;100.00;100075.81;6028023;28;20069;-68
2023/07/12 04:46:45;;;;;;;4.87;2.20;;;;;;;19.09;100.00;100075.94;6029182;28;20022;-67
2023/07/12 04:49:41;;;;;;;4.47;2.43;;;;;;;19.17;100.00;100104.44;6031267;28;20027;-68
2023/07/12 04:52:36;;;;;;;7.00;2.77;;;;;;;19.07;100.00;100101.41;6027460;28;20269;-67
2023/07/12 04:55:32;;;;;;;5.63;2.50;;;;;;;19.09;100.00;100091.25;6027479;28;20270;-67
2023/07/12 04:58:28;;;;;;;7.72;2.75;;;;;;;19.03;100.00;100101.81;6028216;28;20042;-68
2023/07/12 05:01:23;;;;;;;6.80;2.55;;;;;;;19.09;100.00;100123.50;6028395;28;20069;-67
2023/07/12 05:04:18;;;;;;;9.48;3.58;;;;;;;19.13;100.00;100120.19;6027961;28;20037;-68
2023/07/12 05:07:14;;;;;;;7.27;3.03;;;;;;;19.03;100.00;100114.44;6028925;28;20022;-67
2023/07/12 05:10:10;;;;;;;7.03;2.93;;;;;;;19.01;100.00;100121.91;6028137;28;20114;-67
2023/07/12 05:13:05;;;;;;;4.82;2.80;;;;;;;19.00;100.00;100120.25;6027881;28;20300;-68
2023/07/12 05:16:02;;;;;;;7.03;3.03;;;;;;;19.00;100.00;100128.31;6027508;28;20466;-67
2023/07/12 05:18:57;;;;;;;7.00;2.72;;;;;;;19.07;100.00;100137.16;6027405;28;20069;-67
2023/07/12 05:21:52;;;;;;;5.97;2.63;;;;;;;19.10;100.00;100158.25;6025104;28;20410;-67
2023/07/12 05:24:47;;;;;;;6.95;2.80;;;;;;;19.11;100.00;100161.75;6026626;28;20037;-67
2023/07/12 05:27:43;;;;;;;6.23;2.90;;;;;;;18.94;100.00;100145.31;6027422;28;20034;-67
2023/07/12 05:30:40;;;;;;;9.67;2.53;;;;;;;19.06;100.00;100166.94;6036869;28;20748;-67
2023/07/12 05:33:35;;;;;;;7.03;2.40;;;;;;;19.01;100.00;100164.91;6027199;28;20317;-67
2023/07/12 05:36:31;;;;;;;7.60;2.50;;;;;;;19.11;100.00;100180.56;6039014;28;20381;-68
2023/07/12 05:39:26;;;;;;;4.75;2.13;;;;;;;19.11;100.00;100191.31;6030794;28;20277;-67
2023/07/12 05:42:21;;;;;;;4.37;2.10;;;;;;;19.12;100.00;100169.59;6029933;28;20035;-68
2023/07/12 05:45:16;;;;;;;4.20;1.87;;;;;;;19.25;100.00;100187.53;6035924;28;20027;-67
2023/07/12 05:48:12;;;;;;;3.77;1.83;;;;;;;19.32;99.31;100199.09;6029683;28;20109;-67
2023/07/12 05:51:08;;;;;;;3.80;1.40;;;;;;;19.55;97.39;100188.63;6029859;28;20288;-67
2023/07/12 05:54:03;;;;;;;3.78;1.30;;;;;;;19.96;93.16;100199.69;6034606;28;20461;-67
2023/07/12 05:56:58;;;;;;;3.40;1.50;;;;;;;20.16;90.75;100194.16;6028556;28;20046;-67
2023/07/12 05:59:53;;;;;;;2.63;1.27;;;;;;;20.38;89.31;100178.44;6026769;28;20112;-67
2023/07/12 06:02:49;;;;;;;4.70;1.20;;;;;;;20.98;85.45;100196.38;6026717;28;20038;-68
2023/07/12 06:05:44;;;;;;;3.00;1.20;;;;;;;21.09;84.37;100209.16;6025909;28;20110;-67
2023/07/12 06:08:39;;;;;;;2.43;1.10;;;;;;;20.74;84.13;100195.44;6026781;28;20045;-67
2023/07/12 06:11:35;;;;;;;2.73;1.00;;;;;;;20.40;83.26;100198.72;6027553;28;20289;-68
2023/07/12 06:14:30;;;;;;;2.47;1.10;;;;;;;20.58;85.26;100222.97;6026097;28;20041;-68
2023/07/12 06:17:25;;;;;;;1.37;0.87;;;;;;;20.82;85.08;100223.97;6026335;28;20031;-67
2023/07/12 06:20:21;;;;;;;2.17;0.90;;;;;;;21.07;80.07;100222.03;6036242;28;20474;-67
2023/07/12 06:23:16;;;;;;;2.58;1.05;;;;;;;20.75;81.00;100212.44;6026034;28;20254;-67
2023/07/12 06:26:11;;;;;;;2.60;1.23;;;;;;;20.77;81.65;100215.72;6028091;28;20042;-67
2023/07/12 06:29:07;;;;;;;2.40;1.00;;;;;;;20.59;80.87;100231.91;6026593;28;20421;-67
2023/07/12 06:32:02;;;;;;;2.85;1.10;;;;;;;20.83;79.64;100203.22;6026233;28;20442;-66
2023/07/12 06:34:57;;;;;;;2.20;1.20;;;;;;;21.44;76.58;100214.72;6025376;28;20502;-67
2023/07/12 06:37:53;;;;;;;3.80;1.23;;;;;;;21.63;73.12;100200.13;6026258;28;20101;-68
2023/07/12 06:40:48;;;;;;;2.63;0.90;;;;;;;21.70;73.71;100200.00;6025995;28;20030;-67
2023/07/12 06:43:44;;;;;;;3.28;1.00;;;;;;;21.67;72.31;100186.97;6027392;28;20072;-67
2023/07/12 06:46:39;;;;;;;2.22;1.10;;;;;;;22.18;70.53;100205.28;6026617;28;20501;-67
2023/07/12 06:49:34;;;;;;;1.70;0.90;;;;;;;22.52;66.89;100194.50;6026171;28;20034;-67
2023/07/12 06:52:30;;;;;;;3.15;1.20;;;;;;;22.12;67.70;100171.13;6026110;28;20117;-67
2023/07/12 06:55:25;;;;;;;5.20;1.40;;;;;;;22.08;68.64;100176.16;6025003;28;20034;-67
2023/07/12 06:58:20;;;;;;;2.17;1.00;;;;;;;22.36;68.20;100188.97;6026595;28;20417;-68
2023/07/12 07:01:16;;;;;;;1.75;0.90;;;;;;;22.46;66.43;100183.78;6027096;28;20026;-68
2023/07/12 07:04:11;;;;;;;3.50;1.10;;;;;;;22.70;65.33;100201.66;6025405;28;20034;-67
2023/07/12 07:07:06;;;;;;;1.33;0.80;;;;;;;22.69;63.18;100189.22;6025785;28;20366;-67
2023/07/12 07:10:02;;;;;;;2.93;0.77;;;;;;;23.64;60.06;100176.75;6025687;28;20297;-67
2023/07/12 07:12:58;;;;;;;1.48;0.77;;;;;;;23.83;57.66;100184.66;6026064;28;20521;-67
2023/07/12 07:15:53;;;;;;;1.73;1.00;;;;;;;23.95;56.71;100191.63;6027041;28;20034;-67
2023/07/12 07:18:49;;;;;;;1.27;0.60;;;;;;;23.61;57.26;100198.91;6030537;28;20049;-67
2023/07/12 07:21:47;;;;;;;4.90;1.00;;;;;;;23.80;57.33;100206.81;6030578;28;20378;-68
2023/07/12 07:24:43;;;;;;;2.75;0.80;;;;;;;23.36;57.94;100206.53;6029594;28;20385;-67
2023/07/12 07:27:39;;;;;;;2.35;0.90;;;;;;;23.81;57.24;100224.72;6035705;28;20023;-67
2023/07/12 07:30:34;;;;;;;2.50;0.77;;;;;;;23.32;57.17;100229.72;6031885;28;20037;-67
2023/07/12 07:33:29;;;;;;;2.10;0.90;;;;;;;23.68;58.36;100228.53;6031553;28;20378;-67
2023/07/12 07:36:24;;;;;;;1.77;0.73;;;;;;;23.93;56.05;100244.41;6030185;28;20018;-67
2023/07/12 07:39:20;;;;;;;1.57;0.60;;;;;;;23.97;55.40;100246.38;6029631;28;20129;-68
2023/07/12 07:42:15;;;;;;;2.23;0.93;;;;;;;24.03;53.87;100244.59;6030182;28;20030;-68
2023/07/12 07:45:11;;;;;;;2.97;1.00;;;;;;;23.61;51.46;100258.50;6029008;28;20421;-67
2023/07/12 07:48:06;;;;;;;3.88;0.60;;;;;;;23.32;53.27;100243.25;6031198;28;20125;-67
2023/07/12 07:51:02;;;;;;;1.93;0.63;;;;;;;23.32;53.04;100253.28;6029633;28;20026;-67
2023/07/12 07:53:57;;;;;;;1.07;0.60;;;;;;;23.36;53.24;100246.31;6028913;28;20022;-67
2023/07/12 07:56:53;;;;;;;2.53;0.70;;;;;;;23.34;52.86;100240.31;6029573;28;20266;-67
2023/07/12 07:59:48;;;;;;;4.40;0.67;;;;;;;23.48;50.65;100253.34;6029453;28;20089;-67
2023/07/12 08:02:43;;;;;;;2.17;0.70;;;;;;;23.16;51.97;100260.25;6029674;28;20023;-67
2023/07/12 08:05:39;;;;;;;1.13;0.60;;;;;;;23.02;53.04;100248.03;6034434;28;20034;-67
2023/07/12 08:08:34;;;;;;;1.60;0.60;;;;;;;23.07;52.83;100251.66;6029074;28;20538;-67
2023/07/12 08:11:30;;;;;;;0.80;0.50;;;;;;;23.51;52.94;100233.91;6029401;28;20261;-67
2023/07/12 08:14:26;;;;;;;1.57;0.80;;;;;;;23.06;53.09;100249.22;6028408;28;20030;-67
2023/07/12 08:17:21;;;;;;;2.67;0.70;;;;;;;23.23;53.21;100247.41;6028969;28;20062;-68
2023/07/12 08:20:17;;;;;;;1.17;0.60;;;;;;;23.09;52.06;100260.38;6028844;28;20030;-67
2023/07/12 08:23:12;;;;;;;0.65;0.60;;;;;;;23.21;53.27;100254.13;6028920;28;20033;-67
2023/07/12 08:26:07;;;;;;;1.60;0.70;;;;;;;23.68;53.22;100274.56;6028114;28;20034;-66
2023/07/12 08:29:04;;;;;;;1.97;0.80;;;;;;;23.51;52.37;100285.34;6027247;28;20044;-67
2023/07/12 08:31:59;;;;;;;1.17;0.73;;;;;;;23.84;51.48;100279.19;6028630;28;20022;-70
2023/07/12 08:34:56;;;;;;;2.17;0.90;;;;;;;23.82;51.82;100280.50;6028100;28;20501;-70
2023/07/12 08:37:51;;;;;;;3.00;0.70;;;;;;;23.22;53.00;100291.75;6028379;28;20916;-69
2023/07/12 08:40:51;;;;;;;3.17;0.60;;;;;;;23.06;53.46;100296.03;6036052;28;20041;-68
2023/07/12 08:43:46;;;;;;;1.30;0.57;;;;;;;23.57;53.52;100297.94;6028103;28;20122;-68
2023/07/12 08:46:47;;;;;;;2.20;0.68;;;;;;;23.32;54.23;100288.47;6028654;28;20370;-67
2023/07/12 08:49:42;;;;;;;1.40;0.60;;;;;;;22.77;56.17;100309.69;6034145;28;20367;-68
2023/07/12 08:52:40;;;;;;;4.00;0.70;;;;;;;22.92;57.17;100291.09;6028608;28;20053;-67
2023/07/12 08:55:37;;;;;;;1.60;0.80;;;;;;;22.65;57.68;100311.56;6027757;28;20561;-68
2023/07/12 08:58:35;;;;;;;1.88;0.80;;;;;;;22.24;58.93;100304.31;6034361;28;20458;-67
2023/07/12 09:01:43;;;;;;;3.63;0.98;;;;;;;22.01;60.58;100333.97;6027085;28;20049;-67
2023/07/12 09:04:40;;;;;;;5.03;1.10;;;;;;;21.66;61.76;100329.19;6026204;28;20030;-67
2023/07/12 09:07:36;;;;;;;2.53;0.77;;;;;;;21.50;61.97;100335.22;6027680;28;20057;-68
2023/07/12 09:10:34;;;;;;;0.88;0.52;;;;;;;21.51;63.39;100334.19;6027853;28;20076;-68
2023/07/12 09:13:38;;;;;;;1.02;0.50;;;;;;;21.76;62.73;100351.09;6011189;28;20030;-68
2023/07/12 09:16:34;;;;;;;2.20;0.70;;;;;;;21.80;61.87;100352.28;6027863;28;20038;-67
2023/07/12 09:19:37;;;;;;;2.15;1.17;;;;;;;21.61;60.52;100356.06;6028072;28;20030;-67
2023/07/12 09:22:32;;;;;;;4.95;1.30;;;;;;;21.58;61.92;100370.00;6027646;28;20187;-68
2023/07/12 09:25:35;;;;;;;3.60;1.70;;;;;;;21.53;61.15;100355.53;6026800;28;20042;-68
2023/07/12 09:28:30;;;;;;;6.22;1.77;;;;;;;21.63;61.09;100350.44;6027984;28;20069;-67
2023/07/12 09:31:29;;;;;;;3.07;1.80;;;;;;;21.51;61.07;100368.44;6031122;28;20061;-68
2023/07/12 09:34:33;;;;;;;2.63;1.63;;;;;;;21.70;61.77;100378.16;6027009;28;20274;-67
2023/07/12 09:37:34;;;;;;;4.38;1.73;;;;;;;21.66;61.07;100379.69;6026267;28;20093;-68
2023/07/12 09:40:36;;;;;;;2.60;1.70;;;;;;;21.30;61.70;100357.06;6027246;28;20027;-68
2023/07/12 09:43:37;;;;;;;3.10;1.88;;;;;;;21.30;63.16;100365.16;6026347;28;20037;-67
2023/07/12 09:46:44;;;;;;;2.90;1.65;;;;;;;21.33;63.02;100372.78;6038106;28;20030;-68
2023/07/12 09:49:47;;;;;;;3.50;1.98;;;;;;;21.38;63.00;100376.69;6027180;28;20465;-67
2023/07/12 09:53:00;;;;;;;3.90;2.00;;;;;;;21.67;61.65;100382.16;6042141;28;20359;-68
2023/07/12 09:56:02;;;;;;;2.50;1.63;;;;;;;22.18;60.25;100370.91;6026087;28;20065;-68
2023/07/12 09:59:04;;;;;;;4.97;2.38;;;;;;;21.99;60.66;100363.09;6025588;28;20042;-67
2023/07/12 10:02:14;;;;;;;3.20;1.75;;;;;;;21.90;61.01;100365.28;6028053;28;20038;-68
2023/07/12 10:05:19;;;;;;;3.10;1.90;;;;;;;22.15;59.62;100352.44;6024856;28;20429;-68
2023/07/12 10:08:16;;;;;;;2.20;1.55;;;;;;;22.48;59.64;100349.22;6030206;28;20030;-67
2023/07/12 10:11:26;;;;;;;3.22;1.63;;;;;;;22.77;58.42;100369.19;6042785;28;20022;-67
2023/07/12 10:14:25;;;;;;;3.05;1.45;;;;;;;22.45;57.87;100350.53;6024972;28;20157;-67
2023/07/12 10:17:36;;;;;;;5.43;1.88;;;;;;;22.45;58.78;100364.03;6030638;28;20060;-67
2023/07/12 10:20:32;;;;;;;2.60;1.35;;;;;;;22.12;59.02;100365.59;6029431;28;20129;-67
2023/07/12 10:23:32;;;;;;;2.13;1.35;;;;;;;22.22;58.77;100360.47;6025681;28;20472;-67
2023/07/12 10:26:27;;;;;;;2.08;1.33;;;;;;;22.20;58.81;100351.78;6025046;28;20080;-68
2023/07/12 10:29:28;;;;;;;1.98;1.20;;;;;;;22.51;57.70;100359.59;6026536;28;20030;-68
2023/07/12 10:32:27;;;;;;;3.13;1.20;;;;;;;23.03;55.74;100366.84;6024634;28;20080;-68
2023/07/12 10:35:31;;;;;;;2.28;1.40;;;;;;;23.25;55.09;100377.06;6028459;28;20074;-66
2023/07/12 10:38:27;;;;;;;2.75;1.60;;;;;;;23.01;55.80;100368.13;6024861;28;20029;-67
2023/07/12 10:41:30;;;;;;;2.75;1.38;;;;;;;23.07;56.97;100365.28;6026286;28;20029;-67
2023/07/12 10:44:31;;;;;;;2.63;1.30;;;;;;;23.04;56.11;100371.19;6023970;28;20038;-67
2023/07/12 10:47:31;;;;;;;3.95;1.60;;;;;;;22.46;58.01;100379.22;6026241;28;20030;-67
2023/07/12 10:50:37;;;;;;;3.50;1.67;;;;;;;22.59;56.75;100388.16;6028198;28;20110;-67
2023/07/12 10:53:32;;;;;;;;;;;;;;;23.12;55.71;100378.13;6016857;28;20485;-67
2023/07/12 10:56:51;;;;;;;2.93;1.40;;;;;;;23.66;52.86;100363.38;6046708;28;19959;-67
2023/07/12 10:59:48;;;;;;;3.08;1.40;;;;;;;24.18;52.24;100377.69;6026569;28;20488;-67
2023/07/12 11:02:46;;;;;;;2.00;1.40;;;;;;;24.05;52.33;100396.91;6025989;28;20034;-67
2023/07/12 11:05:56;;;;;;;3.53;1.20;;;;;;;23.60;52.73;100413.88;6026200;28;20066;-67
2023/07/12 11:09:03;;;;;;;3.83;1.25;;;;;;;23.85;53.63;100412.75;6023865;28;20030;-67
2023/07/12 11:12:05;;;;;;;2.63;1.30;;;;;;;23.74;51.24;100386.53;6037142;28;20481;-67
2023/07/12 11:15:06;;;;;;;5.35;1.30;;;;;;;23.82;51.78;100402.41;6029304;28;20125;-67
2023/07/12 11:18:09;;;;;;;2.05;1.30;;;;;;;24.09;52.07;100387.25;6030057;28;20737;-67
2023/07/12 11:21:08;;;;;;;2.25;1.20;;;;;;;24.69;51.83;100395.66;6022500;28;20113;-67
2023/07/12 11:24:20;;;;;;;3.20;1.27;;;;;;;24.79;48.43;100402.09;6026331;28;20030;-67
2023/07/12 11:27:52;;;;;;;1.95;1.08;;;;;;;24.46;48.94;100401.25;6024714;28;20096;-67
2023/07/12 11:31:17;;;;;;;2.53;1.30;;;;;;;24.13;50.19;100393.84;6026747;28;20034;-67
2023/07/12 11:34:18;;;;;;;4.03;1.50;;;;;;;23.61;49.26;100391.16;6022487;28;20594;-67
2023/07/12 11:37:31;;;;;;;2.63;1.50;;;;;;;23.57;51.02;100400.00;6022312;28;20093;-67
2023/07/12 11:40:30;;;;;;;3.55;1.30;;;;;;;23.91;51.28;100398.25;6032583;28;20133;-67
2023/07/12 11:43:26;;;;;;;6.57;1.10;;;;;;;24.80;48.28;100392.91;6026027;28;20030;-67
2023/07/12 11:46:25;;;;;;;2.80;1.20;;;;;;;24.57;48.54;100381.38;6027803;28;20092;-67
2023/07/12 11:49:25;;;;;;;3.40;1.30;;;;;;;24.10;49.61;100392.44;6027857;28;20038;-67
2023/07/12 11:52:22;;;;;;;4.85;1.38;;;;;;;23.95;48.30;100394.00;6030286;28;20038;-67
2023/07/12 11:55:21;;;;;;;2.15;1.15;;;;;;;23.80;48.74;100389.13;6034042;28;20064;-68
2023/07/12 11:58:21;;;;;;;2.65;1.33;;;;;;;24.29;48.02;100390.38;6030798;28;20042;-67
2023/07/12 12:01:18;;;;;;;4.05;1.25;;;;;;;24.90;46.65;100383.25;6025557;28;20040;-67
2023/07/12 12:04:21;;;;;;;4.97;1.42;;;;;;;24.96;45.13;100380.38;6026408;28;20035;-67
2023/07/12 12:07:22;;;;;;;3.75;1.20;;;;;;;25.00;45.02;100386.16;6033572;28;20492;-67
2023/07/12 12:10:32;;;;;;;3.38;1.38;;;;;;;25.60;45.38;100392.44;6027496;28;20084;-68
2023/07/12 12:13:30;;;;;;;3.63;1.02;;;;;;;25.64;42.71;100382.72;6036689;28;20042;-67
2023/07/12 12:16:28;;;;;;;2.47;1.17;;;;;;;25.77;41.78;100384.25;6035486;28;20605;-67
2023/07/12 12:19:30;;;;;;;1.92;1.30;;;;;;;25.47;42.33;100387.38;6028007;28;20054;-67
2023/07/12 12:22:26;;;;;;;6.65;1.40;;;;;;;24.65;43.88;100367.41;6028664;28;20026;-67
2023/07/12 12:25:23;;;;;;;7.03;1.27;;;;;;;24.55;44.74;100368.03;6031262;28;20444;-68
2023/07/12 12:28:26;;;;;;;4.53;1.30;;;;;;;24.60;45.49;100368.13;6026702;28;20271;-68
2023/07/12 12:31:24;;;;;;;2.92;1.20;;;;;;;24.76;44.81;100378.13;6026499;28;20045;-68
2023/07/12 12:34:21;;;;;;;3.08;1.10;;;;;;;24.91;43.45;100372.19;6029431;28;20494;-69
2023/07/12 12:37:21;;;;;;;2.13;1.10;;;;;;;25.16;42.97;100390.75;6026301;28;20114;-68
2023/07/12 12:40:20;;;;;;;4.38;1.13;;;;;;;25.55;41.31;100367.16;6025473;28;20121;-68
2023/07/12 12:43:18;;;;;;;2.72;1.13;;;;;;;25.71;41.97;100385.28;6027299;28;20045;-68
2023/07/12 12:46:13;;;;;;;3.17;1.30;;;;;;;25.39;41.56;100385.91;6034198;28;20042;-67
2023/07/12 12:49:36;;;;;;;3.50;1.20;;;;;;;25.48;42.05;100394.47;6025562;28;20131;-68
2023/07/12 12:52:35;;;;;;;3.35;0.90;;;;;;;25.32;42.14;100381.72;6032245;28;20104;-68
2023/07/12 12:55:33;;;;;;;4.60;1.27;;;;;;;25.74;42.33;100393.72;6024407;28;20049;-67
2023/07/12 12:58:28;;;;;;;5.38;1.30;;;;;;;26.09;40.57;100374.28;6032332;28;20038;-68
2023/07/12 13:01:24;;;;;;;2.40;1.30;;;;;;;26.02;40.13;100384.53;6025140;28;20084;-68
2023/07/12 13:04:19;;;;;;;2.90;1.30;;;;;;;26.35;41.14;100383.56;6024443;28;20477;-68
2023/07/12 13:07:30;;;;;;;2.97;1.20;;;;;;;26.59;40.00;100384.84;6029631;28;20041;-68
2023/07/12 13:10:26;;;;;;;4.28;1.20;;;;;;;26.38;37.78;100364.00;6029091;28;20458;-68
2023/07/12 13:13:21;;;;;;;2.58;1.20;;;;;;;26.49;38.46;100409.25;6034577;28;20044;-68
2023/07/12 13:16:19;;;;;;;3.55;1.38;;;;;;;26.14;38.69;100398.03;6035080;28;20030;-68
2023/07/12 13:19:15;;;;;;;4.53;1.10;;;;;;;26.55;38.88;100410.97;6028143;28;20034;-68
2023/07/12 13:22:12;;;;;;;1.93;1.00;;;;;;;26.56;38.45;100401.69;6038010;28;20146;-68
2023/07/12 13:25:08;;;;;;;2.83;1.13;;;;;;;25.88;41.03;100408.56;6029809;28;20361;-68
2023/07/12 13:28:03;;;;;;;5.32;1.33;;;;;;;25.62;41.79;100409.34;6027133;28;20068;-68
2023/07/12 13:30:59;;;;;;;4.35;1.25;;;;;;;26.10;41.31;100407.72;6024904;28;20118;-68
2023/07/12 13:33:55;;;;;;;3.67;1.15;;;;;;;26.70;40.92;100402.91;6026456;28;20470;-68
2023/07/12 13:36:51;;;;;;;4.85;1.20;;;;;;;26.92;40.77;100398.22;6028241;28;20075;-68
2023/07/12 13:39:47;;;;;;;10.15;1.85;;;;;;;27.18;40.64;100410.94;6030145;28;20114;-68
2023/07/12 13:42:44;;;;;;;3.10;1.17;;;;;;;27.13;38.10;100413.63;6024307;28;20030;-68
2023/07/12 13:45:40;;;;;;;2.88;1.25;;;;;;;27.03;36.95;100412.75;6023543;28;20038;-68